RJNY  Shizuhama Airport

Add Bookmark

Japan

Status
Operational
Latitude Longitude
34° 48' 46" N 138° 17' 52" E
34.812801 138.298004
Local (DST + 9) UTC (GMT + 9)
Oct 22, 2014 08:58 Oct 21, 2014 23:58
Sunrise-Sunset Local UTC
Begin Civil Twilight 05:31 20:31
Sunrise 05:56 20:56
Sunset 05:05 08:05
End Civil Twilight 05:31 08:31

Current Weather

METAR Observed MVFR
RJNY 212238Z 23004KT 9999 -SHRA FEW005 BKN015 BKN025 20/20 Q1010 Tue, Oct 21, 2014 @ 22:38 UTC
(1 Hour, 20 Minutes ago)
Marginal Visual Flight Rules
Wind Visibility Clouds Conditions
230° at 4 knots (7 kph) 10 km or more
  • Few at 500' AGL
  • Broken at 1,500' AGL
  • Broken at 2,500' AGL
  • Light Rain Showers
Temperatures Readings Precipitation
Current Temp 20°C (68°F)
Dewpoint 20°C (68°F)
Humidity 100%
Altimeter 29.82"Hg
Sea Level Pressure 1010mb
Field Elevation 32.81'
None Recorded

Additional weather within a 92.6km radius of RJNY

Map ICAO Location
rjns 10.2km W (259°)
RJAT 76.7km N (043°)

24 Hour Weather History

Loading
-

24 Hour Weather Graphs

Loading
-

CheckWX.com is intended as a tool to help pilots better visualize weather data. It is not intended as a substitute for an official weather briefing obtained from a Flight Service Station. CheckWX.com does not meet the FAA requirements for an official pre-flight weather briefing. Therefore, it's important that pilots still call and obtain an official FSS pre-flight weather briefing.